createdAt,value
2022-08-05T05:33:23.466Z,99.90
2022-08-05T05:36:25.449Z,99.90
2022-08-05T05:39:34.585Z,99.90
2022-08-05T05:42:37.840Z,99.90
2022-08-05T05:45:39.591Z,99.90
2022-08-05T05:48:50.260Z,99.90
2022-08-05T05:51:53.500Z,99.90
2022-08-05T05:54:55.480Z,99.90
2022-08-05T05:57:57.234Z,99.90
2022-08-05T06:01:12.682Z,99.90
2022-08-05T06:04:15.303Z,99.90
2022-08-05T06:07:17.139Z,99.90
2022-08-05T06:10:24.397Z,99.90
2022-08-05T06:50:01.385Z,99.90
2022-08-05T06:53:11.254Z,99.90
2022-08-05T06:56:26.048Z,99.90
2022-08-05T06:59:28.654Z,99.90
2022-08-05T07:02:44.400Z,99.20
2022-08-05T07:05:46.425Z,97.70
2022-08-05T07:08:54.699Z,97.30
2022-08-05T07:11:56.887Z,95.00
2022-08-05T07:15:34.399Z,92.80
2022-08-05T07:18:45.035Z,95.00
2022-08-05T07:22:00.275Z,95.60
2022-08-05T07:25:23.417Z,92.60
2022-08-05T07:28:26.294Z,92.50
2022-08-05T07:31:40.814Z,94.30
2022-08-05T07:34:49.667Z,95.70
2022-08-05T07:37:59.735Z,94.10
2022-08-05T07:42:07.246Z,91.80
2022-08-05T07:44:26.365Z,87.30
2022-08-05T07:47:39.711Z,85.70
2022-08-05T07:50:44.422Z,80.50
2022-08-05T07:53:49.898Z,80.60
2022-08-05T07:57:02.295Z,74.90
2022-08-05T08:00:15.018Z,71.00
2022-08-05T08:03:16.998Z,68.60
2022-08-05T08:06:23.459Z,67.60
2022-08-05T08:09:29.910Z,67.00
2022-08-05T08:12:48.426Z,67.20
2022-08-05T08:16:43.023Z,68.00
2022-08-05T08:20:10.291Z,70.50
2022-08-05T08:22:35.017Z,72.60
2022-08-05T08:25:59.105Z,76.30
2022-08-05T08:29:21.636Z,76.50
2022-08-05T08:32:27.760Z,75.90
2022-08-05T08:35:35.222Z,75.20
2022-08-05T08:38:43.391Z,71.50
2022-08-05T08:42:00.201Z,69.40
2022-08-05T08:45:19.798Z,68.30
2022-08-05T08:49:02.443Z,67.80
2022-08-05T08:52:03.390Z,69.10
2022-08-05T08:55:19.301Z,66.70
2022-08-05T08:58:37.660Z,66.00
2022-08-05T09:01:47.077Z,65.00
2022-08-05T09:05:17.856Z,64.20
2022-08-05T09:08:20.197Z,65.70
2022-08-05T09:11:52.731Z,61.70
2022-08-05T09:14:58.424Z,61.70
2022-08-05T09:18:08.942Z,62.00
2022-08-05T09:21:11.538Z,61.60
2022-08-05T09:24:13.732Z,59.70
2022-08-05T09:28:04.505Z,60.30
2022-08-05T09:30:58.881Z,59.00
2022-08-05T09:34:05.322Z,59.10
2022-08-05T09:37:18.192Z,61.90
2022-08-05T09:40:51.743Z,59.80
2022-08-05T09:43:55.037Z,59.00
2022-08-05T09:47:10.416Z,58.30
2022-08-05T09:50:38.021Z,57.30
2022-08-05T09:53:53.929Z,59.40
2022-08-05T09:57:01.118Z,59.90
2022-08-05T10:00:12.173Z,57.80
2022-08-05T10:03:15.658Z,56.30
2022-08-05T10:06:20.720Z,55.80
2022-08-05T10:09:28.384Z,54.10
2022-08-05T10:12:49.603Z,54.00
2022-08-05T10:15:52.133Z,54.90
2022-08-05T10:18:55.488Z,56.30
2022-08-05T10:21:59.196Z,56.70
2022-08-05T10:25:01.312Z,57.10
2022-08-05T10:28:16.818Z,57.80
2022-08-05T10:32:49.582Z,56.00
2022-08-05T10:34:41.229Z,55.70
2022-08-05T10:37:44.938Z,54.40
2022-08-05T10:41:07.685Z,54.10
2022-08-05T10:44:13.321Z,54.20
2022-08-05T10:47:26.788Z,55.20
2022-08-05T10:50:36.589Z,56.20
2022-08-05T10:53:53.143Z,55.90
2022-08-05T10:56:57.222Z,54.40
2022-08-05T11:00:20.094Z,54.90
2022-08-05T11:03:26.277Z,56.30
2022-08-05T11:06:30.892Z,55.30
2022-08-05T11:10:03.992Z,55.20
2022-08-05T11:13:39.614Z,55.40
2022-08-05T11:18:00.179Z,56.40
2022-08-05T11:20:56.619Z,55.40
2022-08-05T11:24:29.848Z,54.50
2022-08-05T11:27:50.768Z,55.80
2022-08-05T11:30:58.593Z,56.90
2022-08-05T11:34:02.823Z,56.10
2022-08-05T11:38:14.270Z,56.20
2022-08-05T11:41:36.838Z,54.80
2022-08-05T11:44:53.447Z,55.00
2022-08-05T11:47:57.082Z,55.50
2022-08-05T11:51:01.298Z,55.90
2022-08-05T11:54:03.168Z,56.00
2022-08-05T11:57:07.543Z,57.10
2022-08-05T12:00:31.883Z,57.80
2022-08-05T12:03:55.802Z,58.40
2022-08-05T12:07:01.074Z,59.30
2022-08-05T12:10:11.479Z,58.90
2022-08-05T12:13:27.959Z,59.90
2022-08-05T12:16:39.247Z,60.90
2022-08-05T12:20:26.939Z,62.40
2022-08-05T12:23:10.172Z,62.10
2022-08-05T12:26:11.883Z,60.20
2022-08-05T12:29:24.182Z,60.20
2022-08-05T12:32:26.100Z,59.30
2022-08-05T12:35:39.643Z,60.40
2022-08-05T12:38:42.159Z,61.40
2022-08-05T12:41:45.608Z,60.90
2022-08-05T12:44:48.232Z,61.20
2022-08-05T12:48:01.600Z,62.30
2022-08-05T12:52:10.760Z,62.30
2022-08-05T12:54:40.972Z,61.30
2022-08-05T12:58:38.913Z,61.00
2022-08-05T13:02:01.084Z,62.10
2022-08-05T13:04:29.986Z,63.50
2022-08-05T13:07:58.032Z,64.80
2022-08-05T13:11:01.084Z,65.40
2022-08-05T13:14:06.378Z,64.00
2022-08-05T13:17:20.619Z,63.70
2022-08-05T13:20:35.274Z,64.40
2022-08-05T13:23:50.984Z,65.10
2022-08-05T13:26:54.027Z,65.20
2022-08-05T13:29:59.576Z,64.40
2022-08-05T13:34:25.027Z,64.40
2022-08-05T13:36:39.830Z,64.00
2022-08-05T13:40:16.064Z,64.60
2022-08-05T13:43:03.584Z,65.90
2022-08-05T13:46:14.401Z,66.20
2022-08-05T13:49:16.565Z,65.40
2022-08-05T13:52:29.063Z,66.90
2022-08-05T13:55:40.802Z,68.10
2022-08-05T13:58:43.866Z,69.80
2022-08-05T14:01:58.768Z,71.10
2022-08-05T14:05:19.398Z,72.10
2022-08-05T14:08:32.574Z,72.60
2022-08-05T14:12:00.445Z,72.80
2022-08-05T14:15:00.867Z,72.80
2022-08-05T14:18:14.858Z,72.20
2022-08-05T14:22:08.142Z,74.60
2022-08-05T14:24:42.532Z,77.70
2022-08-05T14:27:50.841Z,79.50
2022-08-05T14:30:52.550Z,80.70
2022-08-05T14:33:59.206Z,82.00
2022-08-05T14:37:01.649Z,82.10
2022-08-05T14:40:03.856Z,82.40
2022-08-05T14:43:05.979Z,83.30
2022-08-05T14:46:12.756Z,83.30
2022-08-05T14:49:14.508Z,83.50
2022-08-05T14:52:36.338Z,84.60
2022-08-05T14:55:39.812Z,85.50
2022-08-05T14:58:47.632Z,87.40
2022-08-05T15:01:54.785Z,88.80
2022-08-05T15:04:58.386Z,90.00
2022-08-05T15:08:12.106Z,90.90
2022-08-05T15:11:18.665Z,91.00
2022-08-05T15:14:34.457Z,91.50
2022-08-05T15:17:46.920Z,91.50
2022-08-05T15:20:49.573Z,91.60
2022-08-05T15:23:51.272Z,92.80
2022-08-05T15:26:53.443Z,93.90
2022-08-05T15:29:57.692Z,94.70
2022-08-05T15:32:59.462Z,94.40
2022-08-05T15:36:04.812Z,94.20
2022-08-05T15:40:42.629Z,95.00
2022-08-05T15:42:55.825Z,95.00
2022-08-05T15:45:59.778Z,94.90
2022-08-05T15:49:10.684Z,95.80
2022-08-05T15:52:29.678Z,95.70
2022-08-05T15:56:02.818Z,95.40
2022-08-05T15:58:57.370Z,95.20
